createdAt,value
2018-06-30T00:02:44.874Z,19.00
2018-06-30T00:06:49.470Z,19.10
2018-06-30T00:10:53.138Z,18.90
2018-06-30T00:15:02.423Z,18.90
2018-06-30T00:19:05.973Z,18.80
2018-06-30T00:23:10.341Z,18.70
2018-06-30T00:27:19.366Z,18.60
2018-06-30T00:31:23.037Z,18.50
2018-06-30T00:35:27.877Z,18.50
2018-06-30T00:39:31.427Z,18.40
2018-06-30T00:43:35.341Z,18.40
2018-06-30T00:47:38.910Z,18.40
2018-06-30T00:51:42.467Z,18.30
2018-06-30T00:55:46.126Z,18.30
2018-06-30T00:59:49.678Z,18.20
2018-06-30T01:03:58.216Z,18.10
2018-06-30T01:08:01.747Z,18.00
2018-06-30T01:12:05.341Z,18.10
2018-06-30T01:16:09.020Z,18.10
2018-06-30T01:20:12.584Z,18.00
2018-06-30T01:24:16.422Z,17.90
2018-06-30T01:28:20.079Z,17.80
2018-06-30T01:32:23.941Z,17.80
2018-06-30T01:36:27.435Z,17.80
2018-06-30T01:40:31.016Z,17.70
2018-06-30T01:44:34.562Z,17.60
2018-06-30T01:48:38.251Z,17.60
2018-06-30T01:52:41.840Z,17.60
2018-06-30T01:56:46.525Z,17.50
2018-06-30T02:00:50.051Z,17.50
2018-06-30T02:04:53.655Z,17.40
2018-06-30T02:08:59.213Z,17.30
2018-06-30T02:13:02.770Z,17.40
2018-06-30T02:17:06.428Z,17.30
2018-06-30T02:21:15.221Z,17.20
2018-06-30T02:25:18.730Z,17.20
2018-06-30T02:29:26.797Z,17.20
2018-06-30T02:33:30.343Z,17.10
2018-06-30T02:37:34.167Z,16.90
2018-06-30T02:41:43.593Z,16.70
2018-06-30T02:45:47.254Z,16.60
2018-06-30T02:50:09.384Z,16.70
2018-06-30T02:54:12.933Z,16.70
2018-06-30T02:58:20.242Z,16.70
2018-06-30T03:02:23.794Z,16.70
2018-06-30T03:06:27.277Z,16.60
2018-06-30T03:10:30.919Z,16.60
2018-06-30T03:14:34.387Z,16.50
2018-06-30T03:18:37.902Z,16.50
2018-06-30T03:22:41.423Z,16.50
2018-06-30T03:26:45.198Z,16.50
2018-06-30T03:30:48.663Z,16.50
2018-06-30T03:34:52.266Z,16.50
2018-06-30T03:38:55.786Z,16.50
2018-06-30T03:42:59.430Z,16.50
2018-06-30T03:47:02.922Z,16.40
2018-06-30T03:51:06.918Z,16.40
2018-06-30T03:55:10.449Z,16.40
2018-06-30T03:59:14.619Z,16.50
2018-06-30T04:07:21.406Z,16.40
2018-06-30T04:11:24.974Z,16.50
2018-06-30T04:15:28.562Z,16.60
2018-06-30T04:19:32.087Z,16.80
2018-06-30T04:23:35.775Z,16.90
2018-06-30T04:27:39.274Z,17.00
2018-06-30T04:31:42.858Z,17.10
2018-06-30T04:35:46.507Z,17.30
2018-06-30T04:39:51.070Z,17.40
2018-06-30T04:43:54.554Z,17.50
2018-06-30T04:52:01.684Z,17.60
2018-06-30T04:56:05.259Z,17.80
2018-06-30T05:00:08.782Z,17.80
2018-06-30T05:04:12.391Z,17.90
2018-06-30T05:08:15.930Z,18.10
2018-06-30T05:12:19.471Z,18.10
2018-06-30T05:16:22.963Z,18.30
2018-06-30T05:20:26.523Z,18.50
2018-06-30T05:28:33.207Z,18.90
2018-06-30T05:32:36.693Z,19.20
2018-06-30T05:36:40.235Z,19.40
2018-06-30T05:44:47.194Z,19.80
2018-06-30T05:48:50.663Z,19.90
2018-06-30T05:52:54.702Z,20.10
2018-06-30T05:56:58.205Z,20.40
2018-06-30T06:01:02.014Z,21.10
2018-06-30T06:05:07.178Z,21.70
2018-06-30T06:09:12.226Z,22.40
2018-06-30T06:13:16.025Z,22.60
2018-06-30T06:17:19.656Z,23.40
2018-06-30T06:21:23.183Z,23.80
2018-06-30T06:25:27.734Z,24.50
2018-06-30T06:29:31.437Z,24.50
2018-06-30T06:33:34.993Z,24.90
2018-06-30T06:37:38.592Z,25.30
2018-06-30T06:41:42.281Z,25.60
2018-06-30T06:45:47.226Z,26.10
2018-06-30T06:49:51.771Z,26.40
2018-06-30T06:53:55.397Z,26.30
2018-06-30T06:57:58.989Z,27.70
2018-06-30T07:06:06.467Z,29.20
2018-06-30T07:10:11.357Z,29.90
2018-06-30T07:14:15.266Z,30.20
2018-06-30T07:18:19.172Z,30.80
2018-06-30T07:22:22.752Z,31.10
2018-06-30T07:26:26.392Z,31.30
2018-06-30T07:30:29.979Z,31.60
2018-06-30T07:34:34.157Z,31.20
2018-06-30T07:38:39.808Z,31.60
2018-06-30T07:42:43.466Z,31.70
2018-06-30T07:46:48.322Z,31.80
2018-06-30T07:50:51.835Z,31.40
2018-06-30T07:54:55.808Z,31.60
2018-06-30T07:58:59.513Z,31.80
2018-06-30T08:03:03.192Z,32.10
2018-06-30T08:07:07.828Z,31.90
2018-06-30T08:11:11.859Z,31.60
2018-06-30T08:15:15.795Z,31.90
2018-06-30T08:19:20.502Z,32.50
2018-06-30T08:23:24.735Z,32.70
2018-06-30T08:27:28.548Z,32.30
2018-06-30T08:31:32.618Z,31.50
2018-06-30T08:35:36.307Z,31.80
2018-06-30T08:39:40.011Z,32.90
2018-06-30T08:47:47.602Z,32.40
2018-06-30T08:51:51.374Z,32.30
2018-06-30T08:55:54.970Z,32.60
2018-06-30T08:59:58.706Z,32.60
2018-06-30T09:04:02.286Z,32.60
2018-06-30T09:12:12.487Z,32.90
2018-06-30T09:16:16.233Z,32.60
2018-06-30T09:20:19.899Z,32.60
2018-06-30T09:24:24.507Z,31.70
2018-06-30T09:28:28.104Z,30.90
2018-06-30T09:32:33.831Z,30.60
2018-06-30T09:36:38.021Z,30.50
2018-06-30T09:40:41.883Z,30.60
2018-06-30T09:44:47.583Z,30.30
2018-06-30T09:48:51.266Z,30.00
2018-06-30T09:52:56.318Z,30.60
2018-06-30T10:01:07.174Z,29.20
2018-06-30T10:05:14.363Z,29.20
2018-06-30T10:09:17.897Z,29.00
2018-06-30T10:13:21.526Z,29.10
2018-06-30T10:17:25.873Z,29.60
2018-06-30T10:21:30.290Z,29.90
2018-06-30T10:25:35.227Z,29.50
2018-06-30T10:29:39.242Z,29.60
2018-06-30T10:33:42.994Z,29.60
2018-06-30T10:37:46.726Z,29.00
2018-06-30T10:41:50.495Z,29.20
2018-06-30T10:45:57.767Z,29.30
2018-06-30T10:50:01.815Z,29.30
2018-06-30T10:54:05.594Z,29.40
2018-06-30T10:58:10.428Z,29.40
2018-06-30T11:02:13.994Z,28.90
2018-06-30T11:06:18.787Z,28.90
2018-06-30T11:10:23.548Z,29.00
2018-06-30T11:14:27.049Z,28.80
2018-06-30T11:18:32.658Z,28.60
2018-06-30T11:22:39.989Z,28.90
2018-06-30T11:26:43.613Z,28.90
2018-06-30T11:30:47.238Z,29.20
2018-06-30T11:34:50.922Z,28.80
2018-06-30T11:38:54.497Z,28.90
2018-06-30T11:42:58.221Z,28.80
2018-06-30T11:47:02.034Z,28.70
2018-06-30T11:51:05.997Z,28.90
2018-06-30T11:55:09.562Z,28.40
2018-06-30T11:59:15.319Z,28.20
2018-06-30T12:03:18.886Z,28.30
2018-06-30T12:07:22.446Z,28.50
2018-06-30T12:11:26.112Z,28.50
2018-06-30T12:15:29.903Z,27.90
2018-06-30T12:19:33.680Z,28.10
2018-06-30T12:23:37.544Z,28.00
2018-06-30T12:27:42.032Z,27.90
2018-06-30T12:31:45.598Z,27.70
2018-06-30T12:35:49.252Z,27.80
2018-06-30T12:39:52.839Z,27.80
2018-06-30T12:43:56.489Z,27.10
2018-06-30T12:48:00.190Z,27.30
2018-06-30T12:52:03.916Z,27.10
2018-06-30T12:56:07.567Z,27.20
2018-06-30T13:00:11.365Z,27.10
2018-06-30T13:04:14.908Z,27.10
2018-06-30T13:08:18.480Z,27.00
2018-06-30T13:12:25.675Z,26.70
2018-06-30T13:16:29.939Z,26.50
2018-06-30T13:20:33.563Z,26.40
2018-06-30T13:24:37.073Z,26.20
2018-06-30T13:28:40.678Z,26.20
2018-06-30T13:32:52.334Z,26.40
2018-06-30T13:36:55.911Z,26.50
2018-06-30T13:40:59.630Z,26.40
2018-06-30T13:45:03.517Z,26.30
2018-06-30T13:49:07.356Z,26.70
2018-06-30T13:53:10.949Z,26.60
2018-06-30T13:57:14.513Z,26.60
2018-06-30T14:01:21.363Z,26.60
2018-06-30T14:05:24.907Z,26.50
2018-06-30T14:09:28.484Z,26.50
2018-06-30T14:13:32.220Z,26.30
2018-06-30T14:17:35.824Z,26.40
2018-06-30T14:21:39.360Z,26.00
2018-06-30T14:25:42.987Z,26.10
2018-06-30T14:29:46.555Z,25.90
2018-06-30T14:33:50.634Z,26.20
2018-06-30T14:38:00.273Z,26.20
2018-06-30T14:42:04.290Z,25.90
2018-06-30T14:46:07.831Z,26.20
2018-06-30T14:50:11.425Z,26.40
2018-06-30T14:54:17.063Z,26.20
2018-06-30T14:58:21.969Z,26.20
2018-06-30T15:02:26.652Z,26.20
2018-06-30T15:06:30.803Z,26.20
2018-06-30T15:10:34.767Z,26.00
2018-06-30T15:18:41.601Z,25.90
2018-06-30T15:22:49.726Z,25.90
2018-06-30T15:26:53.258Z,25.90
2018-06-30T15:30:56.913Z,26.00
2018-06-30T15:35:02.387Z,26.00
2018-06-30T15:39:09.341Z,26.10
2018-06-30T15:43:12.806Z,25.80
2018-06-30T15:47:16.459Z,25.90
2018-06-30T15:55:23.459Z,25.90
2018-06-30T15:59:27.105Z,25.90
2018-06-30T16:03:31.336Z,25.90
2018-06-30T16:07:35.496Z,25.60
2018-06-30T16:11:39.075Z,25.80
2018-06-30T16:15:42.631Z,26.00
2018-06-30T16:19:46.476Z,26.00
2018-06-30T16:23:51.132Z,25.80
2018-06-30T16:27:54.736Z,25.60
2018-06-30T16:31:58.278Z,25.50
2018-06-30T16:36:02.131Z,25.60
2018-06-30T16:40:05.929Z,25.50
2018-06-30T16:44:09.498Z,25.40
2018-06-30T16:48:13.175Z,25.40
2018-06-30T16:52:18.199Z,25.40
2018-06-30T16:56:21.884Z,25.30
2018-06-30T17:00:25.926Z,25.20
2018-06-30T17:04:29.534Z,25.10
2018-06-30T17:08:33.493Z,25.10
2018-06-30T17:12:37.095Z,25.10
2018-06-30T17:16:40.692Z,25.00
2018-06-30T17:20:45.227Z,24.90
2018-06-30T17:24:48.824Z,24.80
2018-06-30T17:28:53.567Z,24.70
2018-06-30T17:32:57.091Z,24.60
2018-06-30T17:37:00.754Z,24.70
2018-06-30T17:41:04.446Z,24.80
2018-06-30T17:45:08.010Z,24.60
2018-06-30T17:49:11.587Z,24.50
2018-06-30T17:53:17.158Z,24.40
2018-06-30T17:57:20.858Z,24.40
2018-06-30T18:05:38.399Z,24.20
2018-06-30T18:09:41.987Z,24.10
2018-06-30T18:13:45.543Z,24.10
2018-06-30T18:17:49.276Z,24.10
2018-06-30T18:21:53.963Z,24.10
2018-06-30T18:25:57.483Z,24.00
2018-06-30T18:30:01.411Z,23.90
2018-06-30T18:34:05.375Z,23.90
2018-06-30T18:38:12.466Z,23.80
2018-06-30T18:42:15.994Z,23.80
2018-06-30T18:46:19.702Z,23.70
2018-06-30T18:50:23.219Z,23.60
2018-06-30T18:54:26.879Z,23.40
2018-06-30T18:58:30.687Z,23.30
2018-06-30T19:02:34.317Z,23.20
2018-06-30T19:06:38.083Z,23.10
2018-06-30T19:10:42.126Z,23.00
2018-06-30T19:14:45.667Z,23.00
2018-06-30T19:18:49.373Z,22.90
2018-06-30T19:22:52.883Z,22.70
2018-06-30T19:26:56.523Z,22.70
2018-06-30T19:35:03.855Z,22.40
2018-06-30T19:39:09.248Z,22.30
2018-06-30T19:43:12.782Z,22.20
2018-06-30T19:51:20.493Z,22.00
2018-06-30T19:55:24.039Z,21.90
2018-06-30T19:59:28.725Z,21.80
2018-06-30T20:03:32.481Z,21.70
2018-06-30T20:07:48.607Z,21.60
2018-06-30T20:11:52.118Z,21.50
2018-06-30T20:15:55.757Z,21.50
2018-06-30T20:24:03.059Z,21.30
2018-06-30T20:28:06.771Z,21.20
2018-06-30T20:32:10.386Z,21.20
2018-06-30T20:36:13.897Z,21.10
2018-06-30T20:40:17.534Z,21.10
2018-06-30T20:44:21.134Z,21.00
2018-06-30T20:48:25.068Z,21.00
2018-06-30T20:52:29.614Z,20.90
2018-06-30T20:56:34.391Z,20.80
2018-06-30T21:00:37.946Z,20.80
2018-06-30T21:04:41.742Z,20.80
2018-06-30T21:08:45.384Z,20.70
2018-06-30T21:12:49.025Z,20.60
2018-06-30T21:16:52.618Z,20.50
2018-06-30T21:20:56.255Z,20.40
2018-06-30T21:25:02.197Z,20.40
2018-06-30T21:29:06.417Z,20.30
2018-06-30T21:33:11.826Z,20.40
2018-06-30T21:37:15.746Z,20.20
2018-06-30T21:41:20.242Z,20.10
2018-06-30T21:45:25.754Z,20.10
2018-06-30T21:49:29.459Z,20.10
2018-06-30T21:53:33.437Z,20.10
2018-06-30T21:57:36.990Z,19.90
2018-06-30T22:01:41.176Z,19.90
2018-06-30T22:05:44.798Z,19.90
2018-06-30T22:09:48.794Z,19.80
2018-06-30T22:13:53.455Z,19.70
2018-06-30T22:17:57.194Z,19.60
2018-06-30T22:22:00.823Z,19.60
2018-06-30T22:26:05.530Z,19.50
2018-06-30T22:30:09.075Z,19.50
2018-06-30T22:34:12.773Z,19.40
2018-06-30T22:38:16.417Z,19.30
2018-06-30T22:42:20.013Z,19.30
2018-06-30T22:46:23.727Z,19.20
2018-06-30T22:50:27.295Z,19.10
2018-06-30T22:54:30.909Z,19.10
2018-06-30T22:58:34.699Z,18.80
2018-06-30T23:02:38.573Z,18.60
2018-06-30T23:06:42.150Z,18.50
2018-06-30T23:10:50.686Z,18.30
2018-06-30T23:14:54.256Z,18.30
2018-06-30T23:18:57.769Z,18.00
2018-06-30T23:23:09.340Z,18.20
2018-06-30T23:27:12.936Z,18.20
2018-06-30T23:31:16.859Z,18.20
2018-06-30T23:35:21.230Z,18.20
2018-06-30T23:39:24.777Z,18.10
2018-06-30T23:43:28.413Z,18.10
2018-06-30T23:47:32.045Z,18.10
2018-06-30T23:51:35.716Z,18.10
2018-06-30T23:55:39.360Z,17.90
2018-06-30T23:59:42.869Z,17.90
